Stratford, California
Current Conditions -  °F | °C
As of 4:56 AM on Friday 19 Dec 2014 (Local Time) from KNLC Reporting Station
Clear Clear  
Wind Chill: 38°   Ceiling: Unl
Heat Index: 43°   Visibility: NA
Dew Point: 42°   Wind: 8mph
Humidity: 97%   Direction: 110°ESE
Pressure: 30.19"   Gusts: NA
Location:  36.19°N, 119.82°W
Report Text: KNLC 191256Z AUTO 11007KT CLR 06/06 A3019 RMK AO2 SLP224 T00610056 RVRNO $
Loading
Personal Weather Stations






























Interactive Weather Map New forecast layout! Learn more

10-Day Weather Forecast

Advertisements
Track Severe Weather on mobile